createdAt,value
2023-04-14T00:00:59.202Z,3.25
2023-04-14T00:03:45.186Z,5.75
2023-04-14T00:06:31.282Z,6.07
2023-04-14T00:09:16.399Z,9.52
2023-04-14T00:12:01.660Z,7.65
2023-04-14T00:14:46.961Z,4.82
2023-04-14T00:17:32.334Z,6.18
2023-04-14T00:20:17.530Z,3.00
2023-04-14T00:23:02.403Z,8.02
2023-04-14T00:25:49.771Z,4.63
2023-04-14T00:28:35.441Z,5.38
2023-04-14T00:31:20.465Z,4.15
2023-04-14T00:34:05.905Z,3.72
2023-04-14T00:36:51.200Z,4.85
2023-04-14T00:39:37.017Z,4.85
2023-04-14T00:42:22.155Z,3.53
2023-04-14T00:45:07.591Z,3.78
2023-04-14T00:47:53.250Z,4.55
2023-04-14T00:50:38.460Z,7.35
2023-04-14T00:53:23.957Z,4.03
2023-04-14T00:56:08.981Z,2.85
2023-04-14T00:58:54.150Z,2.70
2023-04-14T01:01:40.533Z,4.15
2023-04-14T01:04:36.726Z,2.88
2023-04-14T01:07:30.494Z,3.63
2023-04-14T01:10:16.236Z,6.13
2023-04-14T01:13:19.678Z,3.92
2023-04-14T01:16:12.858Z,6.05
2023-04-14T01:19:02.479Z,2.63
2023-04-14T01:21:52.365Z,3.97
2023-04-14T01:24:47.475Z,7.55
2023-04-14T01:28:05.192Z,4.38
2023-04-14T01:31:23.427Z,3.78
2023-04-14T01:34:17.142Z,2.92
2023-04-14T01:37:06.444Z,3.42
2023-04-14T01:39:58.332Z,4.25
2023-04-14T01:42:47.722Z,7.60
2023-04-14T01:45:38.718Z,2.72
2023-04-14T01:48:26.166Z,2.67
2023-04-14T01:51:13.486Z,3.53
2023-04-14T01:54:01.027Z,4.28
2023-04-14T01:56:47.888Z,4.75
2023-04-14T01:59:34.605Z,4.40
2023-04-14T02:02:21.713Z,3.63
2023-04-14T02:05:09.870Z,4.72
2023-04-14T02:07:55.680Z,3.97
2023-04-14T02:10:45.909Z,4.80
2023-04-14T02:13:32.565Z,7.40
2023-04-14T02:16:18.675Z,4.88
2023-04-14T02:19:05.722Z,6.47
2023-04-14T02:21:52.379Z,5.60
2023-04-14T02:24:37.582Z,4.38
2023-04-14T02:27:48.936Z,5.70
2023-04-14T02:30:38.874Z,3.90
2023-04-14T02:36:20.479Z,4.32
2023-04-14T02:39:14.304Z,4.60
2023-04-14T02:42:12.654Z,4.95
2023-04-14T02:45:05.266Z,8.32
2023-04-14T02:47:54.281Z,5.80
2023-04-14T02:50:44.204Z,4.65
2023-04-14T02:56:15.545Z,5.65
2023-04-14T02:59:02.095Z,7.88
2023-04-14T03:01:50.495Z,6.95
2023-04-14T03:04:38.944Z,5.22
2023-04-14T03:07:25.350Z,5.65
2023-04-14T03:10:12.264Z,5.60
2023-04-14T03:12:58.786Z,5.47
2023-04-14T03:15:45.636Z,4.07
2023-04-14T03:18:32.200Z,5.65
2023-04-14T03:21:19.193Z,2.65
2023-04-14T03:24:06.286Z,6.07
2023-04-14T03:26:58.529Z,5.18
2023-04-14T03:29:46.686Z,7.10
2023-04-14T03:32:39.698Z,3.63
2023-04-14T03:35:25.797Z,5.28
2023-04-14T03:38:12.391Z,4.55
2023-04-14T03:41:00.950Z,3.20
2023-04-14T03:43:48.253Z,5.25
2023-04-14T03:46:33.453Z,4.05
2023-04-14T03:49:20.827Z,7.13
2023-04-14T03:52:10.884Z,5.00
2023-04-14T03:54:59.620Z,7.20
2023-04-14T03:57:46.140Z,7.70
2023-04-14T04:00:31.306Z,3.67
2023-04-14T04:03:17.782Z,9.70
2023-04-14T04:06:03.954Z,17.42
2023-04-14T04:08:49.783Z,4.20
2023-04-14T04:11:35.871Z,5.15
2023-04-14T04:14:22.722Z,5.72
2023-04-14T04:17:09.908Z,14.52
2023-04-14T04:19:57.362Z,5.70
2023-04-14T04:22:44.635Z,5.82
2023-04-14T04:25:32.160Z,7.20
2023-04-14T04:28:18.088Z,7.07
2023-04-14T04:31:04.909Z,6.07
2023-04-14T04:33:51.508Z,4.10
2023-04-14T04:36:37.847Z,3.75
2023-04-14T04:39:23.178Z,6.57
2023-04-14T04:42:08.287Z,6.13
2023-04-14T04:44:53.672Z,9.13
2023-04-14T04:47:39.019Z,3.70
2023-04-14T04:50:24.222Z,5.50
2023-04-14T04:53:09.002Z,5.07
2023-04-14T04:55:54.026Z,5.97
2023-04-14T04:58:39.038Z,7.22
2023-04-14T05:01:24.089Z,6.93
2023-04-14T05:04:09.580Z,9.05
2023-04-14T05:06:54.434Z,5.72
2023-04-14T05:09:39.617Z,4.28
2023-04-14T05:12:24.948Z,10.80
2023-04-14T05:15:10.360Z,7.28
2023-04-14T05:17:55.310Z,8.88
2023-04-14T05:20:40.494Z,5.78
2023-04-14T05:23:25.935Z,6.90
2023-04-14T05:26:40.238Z,5.78
2023-04-14T05:29:20.299Z,7.72
2023-04-14T05:32:05.429Z,8.23
2023-04-14T05:34:50.839Z,7.10
2023-04-14T05:37:36.389Z,5.40
2023-04-14T05:40:22.532Z,7.78
2023-04-14T05:43:07.783Z,6.15
2023-04-14T05:45:53.026Z,8.27
2023-04-14T05:48:38.165Z,5.65
2023-04-14T05:51:23.113Z,5.85
2023-04-14T05:54:08.580Z,4.47
2023-04-14T05:56:54.060Z,9.80
2023-04-14T05:59:39.086Z,10.48
2023-04-14T06:02:23.947Z,8.82
2023-04-14T06:05:09.586Z,6.93
2023-04-14T06:07:54.727Z,8.48
2023-04-14T06:10:39.612Z,9.43
2023-04-14T06:13:24.678Z,6.18
2023-04-14T06:16:09.508Z,6.85
2023-04-14T06:18:54.629Z,9.18
2023-04-14T06:21:40.088Z,10.95
2023-04-14T06:24:25.374Z,10.18
2023-04-14T06:27:10.703Z,18.63
2023-04-14T06:29:59.880Z,24.80
2023-04-14T06:32:45.043Z,50.53
2023-04-14T06:35:35.056Z,14.57
2023-04-14T06:38:20.704Z,9.88
2023-04-14T06:41:05.834Z,15.15
2023-04-14T06:43:51.140Z,8.88
2023-04-14T06:46:36.701Z,12.63
2023-04-14T06:49:23.862Z,13.88
2023-04-14T06:52:08.868Z,45.78
2023-04-14T06:54:54.254Z,10.52
2023-04-14T06:57:39.344Z,9.70
2023-04-14T07:00:24.450Z,15.15
2023-04-14T07:03:09.782Z,12.80
2023-04-14T07:05:54.916Z,12.02
2023-04-14T07:08:40.641Z,16.92
2023-04-14T07:11:25.914Z,16.67
2023-04-14T07:14:11.168Z,19.23
2023-04-14T07:16:56.291Z,11.32
2023-04-14T07:19:41.239Z,13.60
2023-04-14T07:22:26.523Z,18.75
2023-04-14T07:25:11.702Z,15.95
2023-04-14T07:28:03.110Z,14.88
2023-04-14T07:30:49.471Z,20.00
2023-04-14T07:33:35.635Z,16.15
2023-04-14T07:36:21.019Z,16.40
2023-04-14T07:39:06.444Z,17.75
2023-04-14T07:41:51.736Z,12.93
2023-04-14T07:44:36.902Z,20.50
2023-04-14T07:47:22.256Z,18.70
2023-04-14T07:50:07.881Z,24.40
2023-04-14T07:52:52.899Z,20.98
2023-04-14T07:55:37.817Z,26.50
2023-04-14T07:58:25.014Z,16.35
2023-04-14T08:01:11.895Z,13.88
2023-04-14T08:03:56.941Z,14.23
2023-04-14T08:06:42.304Z,18.10
2023-04-14T08:09:27.562Z,11.25
2023-04-14T08:12:12.908Z,10.60
2023-04-14T08:15:02.048Z,15.77
2023-04-14T08:17:51.290Z,18.23
2023-04-14T08:20:40.144Z,16.60
2023-04-14T08:23:25.663Z,10.48
2023-04-14T08:26:11.615Z,14.27
2023-04-14T08:28:56.841Z,12.43
2023-04-14T08:31:41.741Z,15.85
2023-04-14T08:34:28.617Z,11.35
2023-04-14T08:37:14.005Z,9.75
2023-04-14T08:39:59.042Z,14.38
2023-04-14T08:42:45.819Z,9.85
2023-04-14T08:45:32.567Z,13.45
2023-04-14T08:48:20.093Z,7.22
2023-04-14T08:51:13.870Z,8.55
2023-04-14T08:54:01.550Z,10.65
2023-04-14T08:56:47.771Z,7.97
2023-04-14T08:59:33.271Z,15.77
2023-04-14T09:02:18.936Z,11.75
2023-04-14T09:05:04.351Z,10.10
2023-04-14T09:07:49.562Z,14.45
2023-04-14T09:10:35.961Z,11.18
2023-04-14T09:13:22.946Z,8.95
2023-04-14T09:16:09.076Z,5.70
2023-04-14T09:18:55.220Z,11.00
2023-04-14T09:21:53.707Z,7.90
2023-04-14T09:24:39.742Z,12.43
2023-04-14T09:27:25.275Z,8.30
2023-04-14T09:30:11.285Z,11.80
2023-04-14T09:32:56.972Z,10.80
2023-04-14T09:35:45.902Z,10.75
2023-04-14T09:38:37.268Z,6.50
2023-04-14T09:41:23.687Z,8.68
2023-04-14T09:44:10.005Z,9.27
2023-04-14T09:47:05.458Z,12.57
2023-04-14T09:49:59.453Z,11.40
2023-04-14T09:52:45.082Z,12.98
2023-04-14T09:55:30.706Z,10.15
2023-04-14T09:58:22.574Z,9.02
2023-04-14T10:01:18.475Z,11.82
2023-04-14T10:04:04.061Z,15.48
2023-04-14T10:06:49.581Z,11.45
2023-04-14T10:09:37.832Z,9.75
2023-04-14T10:12:22.848Z,13.25
2023-04-14T10:15:09.952Z,10.65
2023-04-14T10:17:56.438Z,7.20
2023-04-14T10:20:42.813Z,10.90
2023-04-14T10:23:28.218Z,9.82
2023-04-14T10:26:13.816Z,9.13
2023-04-14T10:28:59.487Z,9.05
2023-04-14T10:32:00.853Z,11.98
2023-04-14T10:34:59.821Z,10.98
2023-04-14T10:37:52.003Z,7.30
2023-04-14T10:40:47.494Z,9.55
2023-04-14T10:43:34.523Z,8.15
2023-04-14T10:46:21.150Z,10.55
2023-04-14T10:49:06.314Z,9.25
2023-04-14T10:51:52.161Z,5.20
2023-04-14T10:55:01.013Z,8.68
2023-04-14T10:57:46.919Z,9.00
2023-04-14T11:00:37.610Z,5.00
2023-04-14T11:03:23.538Z,3.90
2023-04-14T11:06:12.444Z,3.08
2023-04-14T11:08:58.310Z,8.32
2023-04-14T11:11:43.454Z,3.22
2023-04-14T11:14:31.683Z,5.63
2023-04-14T11:17:24.466Z,6.20
2023-04-14T11:20:21.068Z,5.38
2023-04-14T11:23:06.132Z,2.13
2023-04-14T11:25:51.747Z,3.50
2023-04-14T11:28:42.450Z,4.20
2023-04-14T11:31:27.794Z,3.15
2023-04-14T11:34:13.172Z,2.97
2023-04-14T11:36:58.701Z,6.25
2023-04-14T11:39:44.380Z,2.35
2023-04-14T11:42:29.359Z,2.90
2023-04-14T11:45:17.142Z,3.50
2023-04-14T11:48:04.714Z,4.70
2023-04-14T11:50:50.127Z,1.83
2023-04-14T11:53:36.358Z,0.98
2023-04-14T11:56:21.603Z,3.00
2023-04-14T11:59:06.581Z,3.63
2023-04-14T12:01:53.357Z,4.53
2023-04-14T12:04:38.345Z,1.08
2023-04-14T12:07:24.182Z,1.85
2023-04-14T12:10:10.022Z,1.10
2023-04-14T12:13:05.040Z,3.92
2023-04-14T12:15:50.696Z,1.77
2023-04-14T12:18:36.240Z,1.77
2023-04-14T12:21:21.594Z,1.92
2023-04-14T12:24:06.979Z,2.22
2023-04-14T12:26:52.321Z,2.95
2023-04-14T12:29:37.623Z,3.13
2023-04-14T12:32:23.107Z,6.35
2023-04-14T12:35:08.873Z,1.83
2023-04-14T12:37:53.700Z,6.95
2023-04-14T12:40:40.423Z,2.13
2023-04-14T12:43:33.581Z,2.65
2023-04-14T12:46:28.328Z,4.50
2023-04-14T12:49:33.354Z,3.60
2023-04-14T12:52:39.436Z,5.03
2023-04-14T12:55:29.755Z,1.17
2023-04-14T12:58:14.807Z,3.42
2023-04-14T13:00:59.963Z,3.13
2023-04-14T13:03:45.995Z,2.85
2023-04-14T13:06:31.303Z,5.13
2023-04-14T13:09:16.605Z,5.47
2023-04-14T13:12:01.747Z,2.72
2023-04-14T13:14:46.986Z,2.05
2023-04-14T13:17:32.246Z,5.25
2023-04-14T13:20:17.882Z,5.00
2023-04-14T13:23:03.243Z,6.03
2023-04-14T13:25:48.456Z,2.90
2023-04-14T13:28:33.438Z,5.93
2023-04-14T13:31:18.522Z,5.32
2023-04-14T13:34:03.846Z,4.25
2023-04-14T13:36:48.915Z,5.93
2023-04-14T13:39:34.214Z,3.80
2023-04-14T13:42:19.148Z,4.00
2023-04-14T13:45:04.767Z,2.30
2023-04-14T13:47:50.129Z,3.78
2023-04-14T13:50:35.286Z,6.88
2023-04-14T13:53:20.400Z,2.38
2023-04-14T13:56:06.330Z,5.63
2023-04-14T13:58:55.046Z,2.22
2023-04-14T14:01:40.575Z,4.90
2023-04-14T14:04:26.389Z,2.35
2023-04-14T14:07:11.734Z,2.13
2023-04-14T14:09:56.808Z,2.28
2023-04-14T14:12:41.689Z,2.33
2023-04-14T14:15:27.298Z,1.75
2023-04-14T14:18:13.496Z,2.97
2023-04-14T14:20:58.865Z,2.30
2023-04-14T14:23:44.302Z,1.15
2023-04-14T14:26:29.472Z,2.75
2023-04-14T14:29:14.456Z,2.75
2023-04-14T14:31:59.494Z,2.88
2023-04-14T14:34:47.303Z,2.47
2023-04-14T14:37:32.321Z,2.42
2023-04-14T14:40:17.165Z,4.03
2023-04-14T14:43:02.501Z,1.60
2023-04-14T14:45:47.550Z,2.83
2023-04-14T14:48:32.543Z,3.17
2023-04-14T14:51:17.599Z,3.00
2023-04-14T14:54:09.880Z,2.97
2023-04-14T14:56:56.518Z,3.90
2023-04-14T14:59:42.130Z,3.92
2023-04-14T15:02:27.466Z,2.97
2023-04-14T15:05:12.760Z,3.63
2023-04-14T15:07:58.255Z,3.90
2023-04-14T15:10:43.423Z,7.88
2023-04-14T15:13:29.382Z,5.65
2023-04-14T15:16:14.208Z,6.25
2023-04-14T15:18:59.245Z,7.07
2023-04-14T15:21:44.261Z,4.95
2023-04-14T15:24:29.506Z,2.30
2023-04-14T15:27:14.781Z,6.45
2023-04-14T15:29:59.707Z,6.40
2023-04-14T15:32:45.089Z,2.92
2023-04-14T15:35:29.931Z,7.15
2023-04-14T15:38:16.263Z,2.58
2023-04-14T15:41:01.357Z,6.70
2023-04-14T15:43:46.586Z,5.50
2023-04-14T15:46:31.944Z,2.42
2023-04-14T15:49:17.339Z,3.05
2023-04-14T15:52:02.670Z,5.05
2023-04-14T15:54:47.785Z,3.67
2023-04-14T15:57:32.861Z,2.67
2023-04-14T16:00:18.820Z,2.90
2023-04-14T16:03:04.710Z,2.45
2023-04-14T16:05:49.919Z,5.47
2023-04-14T16:08:34.852Z,3.63
2023-04-14T16:11:20.098Z,7.03
2023-04-14T16:14:05.248Z,7.63
2023-04-14T16:16:50.391Z,8.70
2023-04-14T16:19:35.331Z,4.22
2023-04-14T16:22:20.444Z,4.93
2023-04-14T16:25:06.979Z,3.63
2023-04-14T16:27:52.157Z,4.00
2023-04-14T16:30:37.785Z,5.00
2023-04-14T16:33:24.534Z,4.22
2023-04-14T16:36:09.683Z,5.55
2023-04-14T16:38:55.341Z,5.88
2023-04-14T16:41:40.164Z,5.70
2023-04-14T16:44:25.238Z,6.15
2023-04-14T16:47:10.361Z,2.97
2023-04-14T16:49:55.903Z,5.35
2023-04-14T16:52:41.136Z,5.35
2023-04-14T16:55:26.097Z,9.05
2023-04-14T16:58:11.080Z,4.72
2023-04-14T17:00:56.264Z,3.97
2023-04-14T17:03:42.409Z,4.60
2023-04-14T17:06:28.024Z,6.95
2023-04-14T17:09:13.086Z,7.80
2023-04-14T17:11:58.732Z,6.13
2023-04-14T17:14:44.976Z,10.55
2023-04-14T17:17:31.467Z,16.02
2023-04-14T17:20:16.851Z,8.95
2023-04-14T17:23:01.815Z,11.65
2023-04-14T17:25:48.349Z,8.95
2023-04-14T17:28:34.856Z,4.07
2023-04-14T17:31:20.965Z,4.32
2023-04-14T17:34:10.553Z,5.05
2023-04-14T17:36:56.385Z,5.25
2023-04-14T17:39:42.481Z,5.22
2023-04-14T17:42:27.881Z,8.35
2023-04-14T17:45:13.189Z,3.45
2023-04-14T17:47:58.186Z,5.10
2023-04-14T17:50:47.591Z,5.75
2023-04-14T17:53:32.453Z,3.47
2023-04-14T17:56:18.019Z,4.15
2023-04-14T17:59:03.235Z,5.32
2023-04-14T18:01:48.813Z,5.90
2023-04-14T18:04:33.973Z,4.38
2023-04-14T18:07:19.755Z,5.63
2023-04-14T18:10:06.424Z,5.32
2023-04-14T18:12:51.976Z,6.80
2023-04-14T18:15:40.277Z,5.15
2023-04-14T18:18:26.055Z,6.38
2023-04-14T18:21:12.305Z,8.30
2023-04-14T18:26:45.545Z,6.30
2023-04-14T18:29:30.880Z,6.75
2023-04-14T18:32:16.051Z,6.90
2023-04-14T18:35:01.585Z,9.75
2023-04-14T18:37:47.074Z,7.85
2023-04-14T18:40:32.227Z,5.22
2023-04-14T18:43:18.570Z,4.88
2023-04-14T18:46:03.872Z,5.95
2023-04-14T18:48:49.451Z,7.72
2023-04-14T18:51:41.168Z,6.05
2023-04-14T18:54:26.269Z,4.78
2023-04-14T18:57:11.698Z,10.90
2023-04-14T18:59:56.875Z,7.22
2023-04-14T19:02:42.768Z,9.18
2023-04-14T19:05:29.780Z,7.07
2023-04-14T19:08:15.124Z,6.35
2023-04-14T19:11:00.406Z,8.63
2023-04-14T19:13:45.446Z,5.20
2023-04-14T19:16:31.036Z,6.00
2023-04-14T19:19:16.712Z,4.40
2023-04-14T19:22:01.989Z,4.75
2023-04-14T19:24:47.921Z,3.58
2023-04-14T19:27:35.242Z,1.73
2023-04-14T19:30:20.679Z,3.75
2023-04-14T19:33:07.114Z,3.22
2023-04-14T19:35:52.893Z,4.93
2023-04-14T19:38:38.421Z,4.75
2023-04-14T19:41:24.323Z,6.80
2023-04-14T19:44:10.072Z,6.65
2023-04-14T19:46:55.634Z,4.55
2023-04-14T19:49:41.969Z,2.90
2023-04-14T19:52:28.246Z,3.72
2023-04-14T19:55:13.683Z,3.65
2023-04-14T19:57:58.897Z,4.07
2023-04-14T20:00:45.159Z,4.70
2023-04-14T20:03:33.082Z,3.38
2023-04-14T20:06:19.711Z,4.20
2023-04-14T20:09:05.303Z,6.50
2023-04-14T20:11:50.374Z,4.82
2023-04-14T20:14:35.369Z,3.53
2023-04-14T20:17:22.734Z,3.05
2023-04-14T20:20:08.852Z,3.47
2023-04-14T20:22:55.543Z,3.50
2023-04-14T20:25:42.720Z,7.15
2023-04-14T20:28:27.755Z,5.30
2023-04-14T20:31:13.500Z,5.05
2023-04-14T20:33:58.480Z,4.95
2023-04-14T20:36:44.885Z,3.55
2023-04-14T20:39:29.695Z,4.40
2023-04-14T20:42:16.088Z,2.50
2023-04-14T20:45:01.787Z,5.93
2023-04-14T20:47:47.423Z,6.75
2023-04-14T20:50:33.481Z,8.57
2023-04-14T20:53:19.231Z,5.13
2023-04-14T20:56:04.544Z,4.68
2023-04-14T20:58:49.904Z,3.10
2023-04-14T21:01:35.036Z,4.10
2023-04-14T21:04:20.350Z,2.97
2023-04-14T21:07:06.385Z,2.83
2023-04-14T21:09:51.573Z,4.63
2023-04-14T21:14:36.045Z,3.53
2023-04-14T21:15:54.509Z,6.32
2023-04-14T21:18:42.325Z,4.00
2023-04-14T21:21:27.987Z,5.70
2023-04-14T21:24:13.693Z,4.20
2023-04-14T21:26:59.252Z,5.82
2023-04-14T21:29:44.708Z,3.30
2023-04-14T21:32:29.944Z,4.25
2023-04-14T21:35:14.968Z,5.10
2023-04-14T21:37:59.983Z,5.22
2023-04-14T21:40:45.687Z,5.57
2023-04-14T21:43:30.863Z,4.10
2023-04-14T21:46:16.100Z,2.85
2023-04-14T21:49:01.763Z,4.35
2023-04-14T21:51:47.521Z,3.20
2023-04-14T21:54:32.785Z,5.45
2023-04-14T21:57:42.951Z,3.47
2023-04-14T22:00:26.349Z,2.97
2023-04-14T22:03:12.115Z,2.72
2023-04-14T22:06:06.268Z,3.59
2023-04-14T22:08:51.558Z,2.53
2023-04-14T22:11:37.639Z,2.45
2023-04-14T22:14:22.649Z,1.55
2023-04-14T22:17:08.415Z,2.95
2023-04-14T22:19:53.746Z,3.67
2023-04-14T22:22:38.908Z,2.80
2023-04-14T22:25:24.500Z,1.77
2023-04-14T22:28:09.742Z,1.70
2023-04-14T22:30:54.908Z,2.75
2023-04-14T22:33:40.227Z,2.58
2023-04-14T22:36:25.702Z,1.77
2023-04-14T22:39:11.136Z,2.67
2023-04-14T22:41:56.614Z,2.08
2023-04-14T22:44:42.640Z,1.88
2023-04-14T22:47:27.604Z,2.58
2023-04-14T22:50:12.768Z,1.90
2023-04-14T22:52:58.607Z,2.50
2023-04-14T22:55:44.259Z,2.15
2023-04-14T22:58:32.013Z,2.65
2023-04-14T23:01:22.326Z,2.47
2023-04-14T23:04:08.176Z,2.75
2023-04-14T23:06:53.564Z,2.53
2023-04-14T23:09:38.371Z,2.53
2023-04-14T23:12:23.500Z,2.03
2023-04-14T23:15:09.324Z,2.67
2023-04-14T23:17:54.975Z,3.05
2023-04-14T23:20:40.282Z,3.35
2023-04-14T23:23:31.035Z,3.34
2023-04-14T23:26:17.290Z,3.80
2023-04-14T23:29:02.932Z,4.20
2023-04-14T23:31:48.143Z,4.60
2023-04-14T23:34:33.226Z,4.30
2023-04-14T23:37:18.342Z,5.35
2023-04-14T23:40:07.971Z,5.85
2023-04-14T23:42:55.965Z,6.70
2023-04-14T23:45:41.436Z,4.68
2023-04-14T23:48:26.872Z,5.32
2023-04-14T23:51:18.023Z,5.60
2023-04-14T23:54:07.509Z,4.82
2023-04-14T23:56:52.740Z,4.88
2023-04-14T23:59:38.156Z,5.53
